Time;durP1;ratioP1;P1;durP2;ratioP2;P2;SDS_P1;SDS_P2;PMS_P1;PMS_P2;Temp;Humidity;BMP_temperature;BMP_pressure;BME280_temperature;BME280_humidity;BME280_pressure;Samples;Min_cycle;Max_cycle;Signal;HPM_P1;HPM_P2
2021/05/07 00:01:09;;;;;;;19.53;16.30;;;6.40;99.90;;;;;;5039802;28;20175;-87
2021/05/07 00:03:36;;;;;;;18.60;14.87;;;6.40;99.90;;;;;;5056113;28;20205;-87
2021/05/07 00:06:04;;;;;;;22.67;15.13;;;6.40;99.90;;;;;;5056837;28;20207;-87
2021/05/07 00:08:38;;;;;;;18.07;15.60;;;6.40;99.90;;;;;;5056640;28;20233;-89
2021/05/07 00:11:06;;;;;;;20.27;14.73;;;6.30;99.90;;;;;;5056101;28;20542;-87
2021/05/07 00:13:33;;;;;;;19.60;15.53;;;6.10;99.90;;;;;;5056172;28;20690;-87
2021/05/07 00:15:58;;;;;;;19.37;15.23;;;6.00;99.90;;;;;;5055813;28;20202;-87
2021/05/07 00:18:24;;;;;;;16.93;14.57;;;5.90;99.90;;;;;;5055809;28;20180;-86
2021/05/07 00:20:50;;;;;;;18.53;15.33;;;5.90;99.90;;;;;;5056096;28;20210;-86
2021/05/07 00:23:16;;;;;;;18.47;15.57;;;5.80;99.90;;;;;;5056177;28;20531;-87
2021/05/07 00:25:41;;;;;;;20.53;16.40;;;5.80;99.90;;;;;;5056476;28;20256;-87
2021/05/07 00:28:09;;;;;;;22.60;16.27;;;6.00;99.90;;;;;;5056351;28;20174;-87
2021/05/07 00:30:36;;;;;;;18.07;16.17;;;6.00;99.90;;;;;;5056573;28;20251;-87
2021/05/07 00:33:02;;;;;;;18.47;15.53;;;5.90;99.90;;;;;;5057149;28;20541;-87
2021/05/07 00:35:28;;;;;;;18.53;16.03;;;5.90;99.90;;;;;;5066109;28;20282;-87
2021/05/07 00:37:54;;;;;;;19.97;15.63;;;5.90;99.90;;;;;;5039320;28;20708;-86
2021/05/07 00:40:20;;;;;;;22.70;17.53;;;6.00;99.90;;;;;;5057210;28;20233;-87
2021/05/07 00:42:46;;;;;;;24.60;18.30;;;5.90;99.90;;;;;;5054770;28;20262;-87
2021/05/07 00:45:14;;;;;;;22.60;17.00;;;6.00;99.90;;;;;;5056416;28;20209;-87
2021/05/07 00:48:10;;;;;;;19.73;15.80;;;6.10;99.90;;;;;;5055736;28;20176;-87
2021/05/07 00:50:38;;;;;;;17.60;15.80;;;6.00;99.90;;;;;;5056064;28;20175;-87
2021/05/07 00:53:05;;;;;;;22.60;16.57;;;5.90;99.90;;;;;;5055475;28;20261;-86
2021/05/07 00:55:32;;;;;;;24.40;17.87;;;6.00;99.90;;;;;;5038977;28;20257;-87
2021/05/07 00:57:59;;;;;;;21.50;17.87;;;6.00;99.90;;;;;;5057285;28;20196;-90
2021/05/07 01:00:27;;;;;;;26.83;16.83;;;5.90;99.90;;;;;;5055529;28;20233;-87
2021/05/07 01:02:53;;;;;;;23.50;17.20;;;5.80;99.90;;;;;;5055558;28;20172;-86
2021/05/07 01:05:22;;;;;;;21.90;16.93;;;5.80;99.90;;;;;;5054970;28;20183;-87
2021/05/07 01:07:51;;;;;;;21.93;17.10;;;5.70;99.90;;;;;;5056606;28;20171;-86
2021/05/07 01:10:18;;;;;;;21.63;17.80;;;5.80;99.90;;;;;;5038764;28;20233;-86
2021/05/07 01:12:45;;;;;;;22.03;17.67;;;5.90;99.90;;;;;;5039033;28;20176;-86
2021/05/07 01:15:25;;;;;;;22.73;17.67;;;5.90;99.90;;;;;;5038296;28;20655;-87
2021/05/07 01:17:53;;;;;;;22.03;17.90;;;5.90;99.90;;;;;;5054726;28;20202;-86
2021/05/07 01:20:21;;;;;;;20.40;17.07;;;5.80;99.90;;;;;;5055045;28;20536;-87
2021/05/07 01:22:49;;;;;;;22.23;16.90;;;5.80;99.90;;;;;;5054804;28;20179;-87
2021/05/07 01:25:18;;;;;;;19.17;17.10;;;5.70;99.90;;;;;;5054994;28;20179;-87
2021/05/07 01:27:46;;;;;;;20.40;17.47;;;5.60;99.90;;;;;;5054737;28;20225;-86
2021/05/07 01:30:22;;;;;;;19.03;16.77;;;5.70;99.90;;;;;;5056384;28;20168;-86
2021/05/07 01:32:48;;;;;;;26.00;19.13;;;5.80;99.90;;;;;;5054612;28;20260;-87
2021/05/07 01:35:22;;;;;;;24.13;18.73;;;5.90;99.90;;;;;;5054449;28;20261;-87
2021/05/07 01:37:51;;;;;;;22.83;17.90;;;6.10;99.90;;;;;;5055009;28;20274;-87
2021/05/07 01:40:25;;;;;;;26.57;18.33;;;6.30;99.90;;;;;;5054239;28;20568;-87
2021/05/07 01:42:52;;;;;;;23.57;18.60;;;6.30;99.90;;;;;;5054860;28;20175;-87
2021/05/07 01:45:21;;;;;;;28.87;19.13;;;6.40;99.90;;;;;;5053611;28;20581;-86
2021/05/07 01:47:47;;;;;;;29.60;20.53;;;6.40;99.90;;;;;;5053626;28;20168;-87
2021/05/07 01:50:17;;;;;;;27.37;21.17;;;6.40;99.90;;;;;;5053679;28;20197;-87
2021/05/07 01:52:42;;;;;;;24.60;19.47;;;6.40;99.90;;;;;;5053326;28;20172;-87
2021/05/07 01:55:11;;;;;;;25.53;19.73;;;6.40;99.90;;;;;;5041353;28;20632;-86
2021/05/07 01:57:38;;;;;;;38.93;20.90;;;6.40;99.90;;;;;;5071285;28;20172;-87
2021/05/07 02:00:13;;;;;;;29.07;21.70;;;6.40;99.90;;;;;;5074472;28;20182;-88
2021/05/07 02:02:39;;;;;;;30.83;20.57;;;6.40;99.90;;;;;;5061475;28;20179;-87
2021/05/07 02:05:06;;;;;;;26.07;18.93;;;6.50;99.90;;;;;;5054223;28;20171;-86
2021/05/07 02:07:32;;;;;;;23.87;19.20;;;6.40;99.90;;;;;;5054373;28;20175;-86
2021/05/07 02:09:58;;;;;;;30.20;18.87;;;6.40;99.90;;;;;;5053273;28;20174;-87
2021/05/07 02:12:24;;;;;;;26.93;19.83;;;6.30;99.90;;;;;;5054004;28;20210;-87
2021/05/07 02:14:50;;;;;;;29.13;19.50;;;6.20;99.90;;;;;;5067946;28;20171;-87
2021/05/07 02:17:17;;;;;;;31.70;19.10;;;6.30;99.90;;;;;;5056068;28;20610;-87
2021/05/07 02:19:42;;;;;;;26.77;19.07;;;6.20;99.90;;;;;;5057803;28;20175;-87
2021/05/07 02:22:08;;;;;;;24.63;19.03;;;6.20;99.90;;;;;;5052776;28;20202;-87
2021/05/07 02:24:34;;;;;;;24.93;19.40;;;6.10;99.90;;;;;;5036348;28;20540;-89
2021/05/07 02:27:00;;;;;;;30.30;19.13;;;6.10;99.90;;;;;;5052948;28;20182;-86
2021/05/07 02:29:25;;;;;;;24.13;18.90;;;6.10;99.90;;;;;;5053958;28;20171;-87
2021/05/07 02:31:51;;;;;;;27.27;18.97;;;6.10;99.90;;;;;;5052505;28;20174;-87
2021/05/07 02:34:17;;;;;;;31.40;18.63;;;6.00;99.90;;;;;;5052822;28;20628;-86
2021/05/07 02:36:42;;;;;;;26.33;19.80;;;6.10;99.90;;;;;;5035862;28;20237;-87
2021/05/07 02:39:09;;;;;;;20.83;17.47;;;6.10;99.90;;;;;;5053894;28;20640;-87
2021/05/07 02:41:37;;;;;;;22.53;17.47;;;6.00;99.90;;;;;;5052609;28;20176;-86
2021/05/07 02:44:07;;;;;;;29.63;19.07;;;5.90;99.90;;;;;;5052539;28;20233;-86
2021/05/07 02:46:37;;;;;;;31.23;18.93;;;5.90;99.90;;;;;;5052687;28;20603;-86
2021/05/07 02:49:04;;;;;;;27.97;19.90;;;6.00;99.90;;;;;;5035903;28;20662;-87
2021/05/07 02:51:30;;;;;;;31.27;19.90;;;6.00;99.90;;;;;;5052349;28;20175;-86
2021/05/07 02:53:57;;;;;;;30.60;20.70;;;6.10;99.90;;;;;;5052195;28;20644;-86
2021/05/07 02:56:22;;;;;;;28.70;20.17;;;6.00;99.90;;;;;;5052244;28;20195;-87
2021/05/07 02:58:48;;;;;;;31.87;20.73;;;6.10;99.90;;;;;;5052600;28;20634;-87
2021/05/07 03:01:14;;;;;;;28.90;21.53;;;6.10;99.90;;;;;;5036146;28;20676;-87
2021/05/07 03:03:40;;;;;;;34.20;21.17;;;6.00;99.90;;;;;;5052037;28;20504;-86
2021/05/07 03:06:05;;;;;;;35.07;22.10;;;6.10;99.90;;;;;;5035471;28;20266;-87
2021/05/07 03:08:31;;;;;;;30.70;19.80;;;6.10;99.90;;;;;;5053188;28;20263;-87
2021/05/07 03:10:57;;;;;;;31.27;19.80;;;6.10;99.90;;;;;;5053092;28;20195;-87
2021/05/07 03:13:23;;;;;;;30.03;19.70;;;6.00;99.90;;;;;;5052107;28;20179;-87
2021/05/07 03:15:49;;;;;;;35.47;19.07;;;5.90;99.90;;;;;;5035684;28;20214;-87
2021/05/07 03:18:16;;;;;;;25.07;17.73;;;5.80;99.90;;;;;;5051898;28;20221;-86
2021/05/07 03:20:42;;;;;;;31.53;19.83;;;5.70;99.90;;;;;;5052309;28;20182;-86
2021/05/07 03:23:08;;;;;;;32.83;20.87;;;5.60;99.90;;;;;;5053569;28;20171;-86
2021/05/07 03:25:34;;;;;;;29.33;18.90;;;5.70;99.90;;;;;;5051997;28;20183;-86
2021/05/07 03:28:00;;;;;;;33.47;21.30;;;5.70;99.90;;;;;;5052349;28;20175;-86
2021/05/07 03:30:25;;;;;;;33.70;20.77;;;5.70;99.90;;;;;;5035322;28;20218;-88
2021/05/07 03:32:51;;;;;;;36.17;21.03;;;5.90;99.90;;;;;;5052137;28;20214;-86
2021/05/07 03:35:17;;;;;;;25.80;20.27;;;6.10;99.90;;;;;;5052414;28;20191;-86
2021/05/07 03:37:43;;;;;;;33.73;21.00;;;6.20;99.90;;;;;;5052166;28;20179;-86
2021/05/07 03:40:09;;;;;;;27.90;19.80;;;6.40;99.90;;;;;;5051747;28;20179;-87
2021/05/07 03:42:35;;;;;;;35.03;21.13;;;6.40;99.90;;;;;;5051876;28;20176;-86
2021/05/07 03:45:00;;;;;;;34.97;20.97;;;6.50;99.90;;;;;;5053134;28;20175;-86
2021/05/07 03:47:26;;;;;;;30.77;20.97;;;6.50;99.90;;;;;;5053000;28;20198;-88
2021/05/07 03:49:52;;;;;;;27.70;19.70;;;6.60;99.90;;;;;;5051905;28;20176;-86
2021/05/07 03:52:17;;;;;;;30.87;20.20;;;6.50;99.90;;;;;;5053114;28;20210;-86
2021/05/07 03:54:45;;;;;;;34.40;20.73;;;6.50;99.90;;;;;;5035636;28;20203;-86
2021/05/07 03:57:10;;;;;;;32.83;19.93;;;6.50;99.90;;;;;;5060480;28;20199;-87
2021/05/07 03:59:36;;;;;;;33.87;20.83;;;6.60;99.90;;;;;;5055386;28;20538;-87
2021/05/07 04:02:02;;;;;;;29.43;19.43;;;6.60;99.90;;;;;;5073323;28;20220;-87
2021/05/07 04:04:28;;;;;;;33.63;21.63;;;6.70;99.90;;;;;;5072359;28;20173;-88
2021/05/07 04:06:53;;;;;;;30.13;19.50;;;6.60;99.90;;;;;;5057640;28;20229;-87
2021/05/07 04:09:28;;;;;;;27.90;19.50;;;6.60;99.90;;;;;;5055509;28;20168;-87
2021/05/07 04:11:57;;;;;;;30.73;19.87;;;6.40;99.90;;;;;;5055532;28;20232;-86
2021/05/07 04:14:23;;;;;;;29.10;20.33;;;6.30;99.90;;;;;;5039291;28;20209;-86
2021/05/07 04:16:49;;;;;;;31.03;20.20;;;6.30;99.90;;;;;;5056259;28;20199;-86
2021/05/07 04:19:15;;;;;;;41.50;19.97;;;6.30;99.90;;;;;;5059540;28;20179;-87
2021/05/07 04:21:41;;;;;;;25.97;17.93;;;6.40;99.90;;;;;;5056691;28;20171;-87
2021/05/07 04:24:07;;;;;;;31.23;18.10;;;6.40;99.90;;;;;;5055625;28;20176;-86
2021/05/07 04:26:33;;;;;;;25.43;16.90;;;6.50;99.90;;;;;;5056195;28;20655;-87
2021/05/07 04:28:59;;;;;;;25.43;16.27;;;6.50;99.90;;;;;;5072749;28;20190;-86
2021/05/07 04:31:24;;;;;;;25.97;16.43;;;6.60;99.90;;;;;;5061500;28;20171;-87
2021/05/07 04:33:51;;;;;;;23.43;14.13;;;6.70;99.90;;;;;;5041227;28;20191;-87
2021/05/07 04:36:16;;;;;;;20.93;15.17;;;6.70;99.90;;;;;;5059361;28;20232;-86
2021/05/07 04:38:42;;;;;;;20.10;13.80;;;6.70;99.90;;;;;;5040041;28;20735;-86
2021/05/07 04:41:08;;;;;;;23.37;14.60;;;6.80;99.90;;;;;;5056836;28;20177;-87
2021/05/07 04:43:34;;;;;;;21.70;14.03;;;6.80;99.90;;;;;;5054422;28;20175;-86
2021/05/07 04:45:59;;;;;;;21.20;13.80;;;6.90;99.90;;;;;;5072488;28;20671;-86
2021/05/07 04:48:25;;;;;;;17.70;14.47;;;6.90;99.90;;;;;;5043044;28;20171;-87
2021/05/07 04:50:51;;;;;;;21.67;14.60;;;6.90;99.90;;;;;;5056044;28;20167;-88
2021/05/07 04:53:16;;;;;;;26.57;15.47;;;6.90;99.90;;;;;;5055899;28;20229;-87
2021/05/07 04:55:42;;;;;;;22.97;15.20;;;7.00;99.90;;;;;;5055213;28;20206;-87
2021/05/07 04:58:08;;;;;;;25.37;15.03;;;7.00;99.90;;;;;;5038690;28;20184;-88
2021/05/07 05:00:33;;;;;;;22.43;14.50;;;7.10;99.90;;;;;;5056030;28;20186;-87
2021/05/07 05:02:59;;;;;;;25.13;15.97;;;7.20;99.90;;;;;;5056351;28;20228;-87
2021/05/07 05:05:25;;;;;;;22.23;15.17;;;7.40;99.90;;;;;;5056396;28;20184;-87
2021/05/07 05:07:52;;;;;;;20.40;14.53;;;7.60;99.90;;;;;;5039652;28;20178;-88
2021/05/07 05:10:22;;;;;;;23.17;14.00;;;7.70;99.90;;;;;;5055958;28;20171;-88
2021/05/07 05:12:47;;;;;;;20.93;12.90;;;7.80;99.90;;;;;;5057045;28;20175;-87
2021/05/07 05:15:14;;;;;;;25.67;13.00;;;7.90;99.90;;;;;;5057125;28;20317;-87
2021/05/07 05:17:40;;;;;;;19.37;12.10;;;8.10;99.90;;;;;;5054057;28;20534;-86
2021/05/07 05:20:07;;;;;;;20.17;12.25;;;8.20;99.90;;;;;;5055831;28;20279;-89
2021/05/07 05:22:33;;;;;;;20.38;11.57;;;8.30;99.90;;;;;;5055668;28;20182;-87
2021/05/07 05:25:04;;;;;;;18.23;11.05;;;8.50;99.90;;;;;;5058009;28;20171;-87
2021/05/07 05:27:30;;;;;;;18.05;11.95;;;8.50;99.90;;;;;;5057418;28;20201;-88
2021/05/07 05:29:55;;;;;;;15.88;11.35;;;8.60;99.90;;;;;;5055366;28;20628;-87
2021/05/07 05:32:21;;;;;;;15.10;10.70;;;8.90;99.90;;;;;;5055634;28;20175;-87
2021/05/07 05:34:47;;;;;;;16.98;10.60;;;9.00;99.90;;;;;;5054236;28;20175;-88
2021/05/07 05:37:12;;;;;;;18.30;11.07;;;9.10;99.90;;;;;;5053851;28;20206;-88
2021/05/07 05:39:38;;;;;;;13.30;9.68;;;9.40;99.90;;;;;;5055842;28;20249;-88
2021/05/07 05:42:04;;;;;;;12.45;9.50;;;9.70;99.90;;;;;;5037910;28;20171;-87
2021/05/07 05:44:29;;;;;;;10.30;9.27;;;9.90;99.90;;;;;;5053698;28;20194;-87
2021/05/07 05:46:55;;;;;;;12.63;9.32;;;10.10;99.90;;;;;;5054947;28;20183;-88
2021/05/07 05:49:20;;;;;;;9.35;8.45;;;10.90;99.90;;;;;;5053652;28;20690;-87
2021/05/07 05:51:46;;;;;;;8.73;7.10;;;11.30;99.90;;;;;;5053750;28;20168;-87
2021/05/07 05:54:12;;;;;;;8.63;6.80;;;11.70;99.90;;;;;;5054049;28;20199;-88
2021/05/07 05:56:39;;;;;;;7.88;7.05;;;11.60;99.90;;;;;;5056365;28;20195;-87
2021/05/07 05:59:04;;;;;;;7.07;6.03;;;11.60;99.90;;;;;;5053793;28;20229;-88
2021/05/07 06:01:30;;;;;;;6.50;5.90;;;11.70;99.90;;;;;;5054495;28;20167;-88
2021/05/07 06:03:56;;;;;;;6.55;5.95;;;11.50;99.90;;;;;;5053279;28;20209;-88
2021/05/07 06:06:21;;;;;;;7.18;6.57;;;11.20;99.90;;;;;;5037179;28;20621;-89
2021/05/07 06:08:47;;;;;;;8.68;5.72;;;11.50;99.90;;;;;;5072562;28;20156;-88
2021/05/07 06:11:13;;;;;;;6.45;5.50;;;11.50;99.90;;;;;;5051149;28;20226;-86
2021/05/07 06:13:38;;;;;;;5.63;5.13;;;11.40;99.90;;;;;;5058007;28;20162;-86
2021/05/07 06:16:04;;;;;;;5.47;4.97;;;11.40;99.90;;;;;;5058241;28;20263;-89
2021/05/07 06:18:30;;;;;;;4.78;4.35;;;13.00;99.90;;;;;;5091235;28;20160;-88
2021/05/07 06:20:56;;;;;;;5.85;3.97;;;14.70;99.90;;;;;;5058381;28;20163;-89
2021/05/07 06:23:22;;;;;;;5.07;4.60;;;15.10;99.90;;;;;;5090673;28;20152;-88
2021/05/07 06:25:48;;;;;;;5.47;4.15;;;14.40;99.90;;;;;;5074401;28;20271;-89
2021/05/07 06:28:14;;;;;;;4.90;4.32;;;14.10;99.90;;;;;;5058308;28;20156;-86
2021/05/07 06:30:40;;;;;;;6.38;4.25;;;13.90;99.90;;;;;;5090287;28;20156;-86
2021/05/07 06:33:06;;;;;;;4.22;3.83;;;14.60;99.90;;;;;;5049446;28;20226;-88
2021/05/07 06:35:31;;;;;;;3.80;3.40;;;15.30;99.90;;;;;;5039703;28;20207;-90
2021/05/07 06:37:59;;;;;;;3.67;3.38;;;17.20;99.90;;;;;;5033076;28;20176;-89
2021/05/07 06:40:25;;;;;;;2.97;2.65;;;19.50;99.90;;;;;;5052998;28;20218;-88
2021/05/07 06:42:51;;;;;;;3.03;2.50;;;21.10;99.90;;;;;;5053763;28;20175;-87
2021/05/07 06:45:17;;;;;;;4.70;3.20;;;20.40;99.90;;;;;;5053748;28;20543;-87
2021/05/07 06:47:42;;;;;;;3.60;2.90;;;20.30;99.90;;;;;;5053606;28;20163;-75
2021/05/07 06:50:11;;;;;;;2.30;2.10;;;20.00;99.90;;;;;;5052130;28;20167;-78
2021/05/07 06:52:37;;;;;;;2.50;2.38;;;21.00;99.90;;;;;;5053449;28;20163;-75
2021/05/07 06:55:04;;;;;;;3.25;1.90;;;22.50;99.90;;;;;;5051822;28;20271;-75
2021/05/07 06:57:29;;;;;;;4.47;2.40;;;23.10;99.70;;;;;;5064123;28;20174;-87
2021/05/07 06:59:58;;;;;;;3.25;2.10;;;23.50;96.80;;;;;;5039920;28;20187;-87
2021/05/07 07:02:24;;;;;;;2.40;2.20;;;23.60;95.50;;;;;;5052500;28;20254;-87
2021/05/07 07:04:50;;;;;;;4.57;2.05;;;21.60;98.40;;;;;;5052766;28;20273;-87
2021/05/07 07:07:15;;;;;;;4.90;2.10;;;23.20;96.90;;;;;;5051974;28;20175;-87
2021/05/07 07:09:45;;;;;;;2.25;2.10;;;23.60;95.00;;;;;;5054604;28;20251;-90
2021/05/07 07:12:11;;;;;;;4.03;2.22;;;22.70;95.10;;;;;;5072495;28;20159;-91
2021/05/07 07:14:39;;;;;;;3.95;2.33;;;20.80;95.30;;;;;;5072754;28;20179;-90
2021/05/07 07:17:06;;;;;;;4.20;2.53;;;19.20;98.30;;;;;;5041243;28;20199;-88
2021/05/07 07:19:32;;;;;;;3.17;2.80;;;18.50;99.60;;;;;;5052788;28;20163;-88
2021/05/07 07:21:58;;;;;;;2.88;2.67;;;16.90;99.90;;;;;;5052632;28;20171;-87
2021/05/07 07:24:25;;;;;;;5.03;2.50;;;17.10;99.90;;;;;;5052441;28;20178;-88
2021/05/07 07:26:51;;;;;;;3.20;3.00;;;16.50;99.90;;;;;;5053073;28;20178;-87
2021/05/07 07:29:16;;;;;;;3.75;3.40;;;15.20;99.90;;;;;;5052739;28;20171;-89
2021/05/07 07:31:42;;;;;;;5.03;3.65;;;14.50;99.90;;;;;;5052500;28;20684;-88
2021/05/07 07:34:08;;;;;;;5.40;3.40;;;14.20;99.90;;;;;;5053855;28;20183;-89
2021/05/07 07:36:33;;;;;;;3.53;3.30;;;14.40;99.90;;;;;;5052928;28;20199;-89
2021/05/07 07:38:59;;;;;;;5.28;3.08;;;16.30;99.90;;;;;;5052619;28;20210;-87
2021/05/07 07:41:25;;;;;;;3.30;3.00;;;17.90;99.90;;;;;;5054779;28;20712;-89
2021/05/07 07:43:51;;;;;;;4.68;2.90;;;19.40;99.90;;;;;;5039958;28;20237;-88
2021/05/07 07:46:16;;;;;;;4.85;2.72;;;21.00;98.70;;;;;;5056683;28;20262;-88
2021/05/07 07:48:42;;;;;;;3.08;2.78;;;20.90;98.30;;;;;;5056158;28;20753;-88
2021/05/07 07:51:08;;;;;;;3.05;2.63;;;22.70;94.70;;;;;;5050873;28;20183;-90
2021/05/07 07:53:34;;;;;;;3.00;2.53;;;25.00;93.10;;;;;;5039339;28;20237;-83
2021/05/07 07:55:59;;;;;;;2.80;2.53;;;25.70;90.80;;;;;;5056396;28;20202;-83
2021/05/07 07:58:25;;;;;;;4.03;3.13;;;24.90;88.40;;;;;;5056003;28;20189;-84
2021/05/07 08:00:53;;;;;;;4.85;2.97;;;23.70;90.20;;;;;;5056037;28;20647;-84
2021/05/07 08:03:19;;;;;;;5.13;3.17;;;23.00;90.80;;;;;;5055066;28;20179;-84
2021/05/07 08:05:44;;;;;;;4.00;3.38;;;23.00;92.50;;;;;;5055194;28;20171;-85
2021/05/07 08:08:10;;;;;;;3.78;3.05;;;25.50;88.10;;;;;;5055613;28;20171;-84
2021/05/07 08:10:36;;;;;;;3.10;2.78;;;25.50;87.10;;;;;;5034914;28;20188;-85
2021/05/07 08:13:02;;;;;;;4.35;3.03;;;25.60;87.10;;;;;;5069548;28;20517;-85
2021/05/07 08:15:27;;;;;;;3.63;3.25;;;27.50;84.90;;;;;;5055909;28;20210;-84
2021/05/07 08:17:54;;;;;;;4.82;4.20;;;29.10;79.50;;;;;;5055127;28;20636;-85
2021/05/07 08:20:21;;;;;;;5.13;4.60;;;30.20;76.30;;;;;;5056057;28;20167;-84
2021/05/07 08:22:47;;;;;;;5.40;4.07;;;31.70;73.30;;;;;;5055950;28;20164;-87
2021/05/07 08:25:14;;;;;;;3.83;3.33;;;32.40;72.10;;;;;;5054825;28;20176;-86
2021/05/07 08:27:41;;;;;;;3.55;3.25;;;33.50;65.20;;;;;;5055930;28;20201;-86
2021/05/07 08:30:09;;;;;;;4.47;3.05;;;34.60;62.30;;;;;;5037946;28;20266;-84
2021/05/07 08:32:35;;;;;;;5.65;3.42;;;31.70;64.80;;;;;;5054886;28;20269;-84
2021/05/07 08:35:02;;;;;;;5.10;2.63;;;28.10;70.00;;;;;;5054632;28;20259;-85
2021/05/07 08:37:27;;;;;;;7.80;3.05;;;24.80;77.20;;;;;;5053651;28;20686;-84
2021/05/07 08:39:54;;;;;;;6.50;3.25;;;22.70;80.90;;;;;;5040032;28;20266;-84
2021/05/07 08:42:21;;;;;;;3.40;3.10;;;21.30;86.60;;;;;;5054430;28;20167;-85
2021/05/07 08:44:52;;;;;;;5.57;3.35;;;22.40;86.80;;;;;;5053903;28;20172;-83
2021/05/07 08:47:21;;;;;;;4.60;3.70;;;23.10;81.40;;;;;;5055524;28;20250;-84
2021/05/07 08:49:51;;;;;;;3.33;3.03;;;23.40;81.80;;;;;;5037594;28;20282;-85
2021/05/07 08:52:20;;;;;;;4.40;3.25;;;25.30;78.90;;;;;;5053130;28;20205;-85
2021/05/07 08:54:46;;;;;;;3.30;3.00;;;28.20;75.50;;;;;;5054510;28;20575;-86
2021/05/07 08:57:13;;;;;;;3.05;2.58;;;28.90;72.30;;;;;;5055794;28;20286;-86
2021/05/07 08:59:38;;;;;;;3.25;2.75;;;29.60;71.30;;;;;;5055937;28;20178;-86
2021/05/07 09:02:04;;;;;;;3.15;2.83;;;28.60;70.50;;;;;;5054651;28;20262;-85
2021/05/07 09:04:30;;;;;;;4.70;2.58;;;27.40;72.20;;;;;;5041845;28;20178;-86
2021/05/07 09:06:56;;;;;;;5.28;2.20;;;26.90;73.20;;;;;;5045165;28;20206;-86
2021/05/07 09:09:28;;;;;;;4.65;2.70;;;29.20;70.90;;;;;;5087502;28;20251;-86
2021/05/07 09:11:55;;;;;;;9.82;2.60;;;31.20;66.70;;;;;;5054360;28;20574;-87
2021/05/07 09:14:23;;;;;;;2.55;1.75;;;32.90;63.60;;;;;;5037785;28;20179;-87
2021/05/07 09:16:52;;;;;;;1.90;1.80;;;34.20;59.70;;;;;;5055464;28;20206;-87
2021/05/07 09:19:23;;;;;;;3.85;2.13;;;35.40;59.00;;;;;;5053795;28;20675;-87
2021/05/07 09:21:50;;;;;;;3.92;2.70;;;31.40;63.00;;;;;;5064932;28;20242;-85
2021/05/07 09:24:17;;;;;;;4.82;2.40;;;26.90;68.30;;;;;;5106454;28;20251;-86
2021/05/07 09:26:50;;;;;;;2.65;2.42;;;24.30;73.70;;;;;;5071448;28;20178;-85
2021/05/07 09:29:24;;;;;;;3.13;2.75;;;23.20;74.80;;;;;;5054566;28;20171;-87
2021/05/07 09:31:51;;;;;;;2.28;2.08;;;26.00;73.70;;;;;;5054581;28;20236;-88
2021/05/07 09:34:19;;;;;;;2.13;1.90;;;27.40;70.30;;;;;;5054739;28;20190;-87
2021/05/07 09:36:45;;;;;;;2.20;2.00;;;28.90;64.60;;;;;;5053888;28;20682;-88
2021/05/07 09:39:16;;;;;;;2.92;1.88;;;29.00;63.70;;;;;;5070525;28;20167;-86
2021/05/07 09:41:44;;;;;;;2.40;2.10;;;30.10;62.00;;;;;;5056227;28;20183;-87
2021/05/07 09:44:24;;;;;;;3.90;2.60;;;31.10;61.10;;;;;;5046678;28;20180;-85
2021/05/07 09:46:53;;;;;;;4.32;2.83;;;29.80;61.20;;;;;;5034695;28;20286;-85
2021/05/07 09:49:27;;;;;;;2.40;2.20;;;27.90;65.50;;;;;;5046678;28;20178;-86
2021/05/07 09:51:53;;;;;;;2.30;2.10;;;25.20;68.10;;;;;;5040612;28;20225;-84
2021/05/07 09:54:19;;;;;;;3.08;2.20;;;23.80;71.80;;;;;;5057266;28;20190;-87
2021/05/07 09:56:45;;;;;;;3.10;2.63;;;22.60;74.50;;;;;;5082851;28;20191;-86
2021/05/07 09:59:12;;;;;;;2.58;2.38;;;23.70;73.40;;;;;;5048685;28;20266;-86
2021/05/07 10:01:42;;;;;;;2.58;2.22;;;25.20;68.80;;;;;;5052695;28;20185;-86
2021/05/07 10:04:07;;;;;;;2.83;2.20;;;27.40;63.80;;;;;;5029195;28;20176;-87
2021/05/07 10:06:33;;;;;;;2.33;2.00;;;30.30;62.20;;;;;;5032954;28;20226;-86
2021/05/07 10:08:59;;;;;;;2.92;2.50;;;28.00;66.30;;;;;;5037513;28;20180;-86
2021/05/07 10:11:33;;;;;;;2.70;2.50;;;26.00;66.80;;;;;;5040095;28;20191;-86
2021/05/07 10:14:06;;;;;;;3.92;2.50;;;24.60;69.50;;;;;;5076315;28;20179;-85
2021/05/07 10:16:32;;;;;;;3.17;2.80;;;23.40;73.10;;;;;;5052254;28;20569;-85
2021/05/07 10:19:02;;;;;;;2.72;2.53;;;22.00;72.10;;;;;;5049084;28;20548;-84
2021/05/07 10:21:37;;;;;;;3.47;2.45;;;21.40;74.60;;;;;;5082914;28;20172;-88
2021/05/07 10:24:08;;;;;;;4.85;2.47;;;23.10;74.70;;;;;;5056370;28;20582;-87
2021/05/07 10:26:53;;;;;;;2.65;2.45;;;22.70;73.80;;;;;;5039803;28;20513;-86
2021/05/07 10:29:20;;;;;;;4.57;2.67;;;23.60;75.20;;;;;;5032763;28;20171;-85
2021/05/07 10:31:54;;;;;;;4.57;3.55;;;22.50;74.00;;;;;;5035059;28;20215;-86
2021/05/07 10:34:21;;;;;;;5.82;3.58;;;24.50;71.50;;;;;;5052915;28;20188;-85
2021/05/07 10:36:55;;;;;;;6.18;2.75;;;26.40;72.40;;;;;;5043186;28;20226;-87
2021/05/07 10:39:24;;;;;;;3.40;2.67;;;27.60;69.60;;;;;;5050488;28;20259;-86
2021/05/07 10:41:51;;;;;;;3.08;2.78;;;28.90;64.50;;;;;;5051351;28;20581;-85
2021/05/07 10:44:22;;;;;;;2.78;2.58;;;26.30;67.20;;;;;;5053530;28;20612;-87
2021/05/07 10:47:07;;;;;;;3.65;2.60;;;23.60;70.00;;;;;;5050923;28;20214;-86
2021/05/07 10:49:41;;;;;;;3.65;2.95;;;22.10;72.70;;;;;;5050676;28;20191;-85
2021/05/07 10:52:09;;;;;;;5.80;2.83;;;21.90;74.00;;;;;;5051697;28;20179;-88
2021/05/07 10:54:44;;;;;;;2.78;2.58;;;24.40;71.70;;;;;;5053049;28;20682;-87
2021/05/07 10:57:28;;;;;;;3.03;2.83;;;27.40;67.10;;;;;;5046968;28;20588;-86
2021/05/07 11:00:03;;;;;;;3.35;3.05;;;28.60;63.20;;;;;;5052894;28;20261;-86
2021/05/07 11:02:29;;;;;;;3.47;3.20;;;25.40;67.10;;;;;;5052630;28;20262;-85
2021/05/07 11:04:55;;;;;;;3.47;3.17;;;21.70;71.60;;;;;;5072831;28;20700;-86
2021/05/07 11:07:29;;;;;;;4.65;3.45;;;20.20;77.20;;;;;;5035794;28;20192;-86
2021/05/07 11:10:04;;;;;;;3.55;3.25;;;22.20;77.20;;;;;;5045002;28;20175;-87
2021/05/07 11:12:30;;;;;;;3.63;3.33;;;23.90;73.40;;;;;;5052187;28;20216;-86
2021/05/07 11:14:56;;;;;;;7.38;3.63;;;25.80;71.60;;;;;;5052752;28;20187;-87
2021/05/07 11:17:22;;;;;;;4.18;3.78;;;27.30;67.40;;;;;;5088851;28;20560;-87
2021/05/07 11:19:48;;;;;;;3.50;3.20;;;26.30;69.30;;;;;;5055277;28;20179;-84
2021/05/07 11:22:14;;;;;;;3.83;3.42;;;24.30;70.40;;;;;;5056793;28;20171;-85
2021/05/07 11:24:42;;;;;;;5.82;3.50;;;22.30;72.30;;;;;;5052420;28;20175;-84
2021/05/07 11:27:23;;;;;;;4.07;3.67;;;20.50;74.80;;;;;;5055605;28;20190;-85
2021/05/07 11:30:13;;;;;;;7.90;3.50;;;21.20;78.70;;;;;;5089077;28;20267;-87
2021/05/07 11:32:39;;;;;;;2.90;2.63;;;23.80;73.60;;;;;;5049085;28;20209;-83
2021/05/07 11:35:08;;;;;;;3.08;2.88;;;25.60;65.80;;;;;;5052644;28;20168;-86
2021/05/07 11:37:34;;;;;;;4.18;3.17;;;27.50;68.30;;;;;;5057542;28;20241;-86
2021/05/07 11:40:12;;;;;;;4.55;3.13;;;27.00;61.90;;;;;;5088348;28;20182;-85
2021/05/07 11:42:40;;;;;;;4.60;3.70;;;24.80;65.50;;;;;;5055865;28;20163;-84
2021/05/07 11:45:09;;;;;;;3.67;3.38;;;24.10;69.10;;;;;;5055142;28;20548;-86
2021/05/07 11:47:36;;;;;;;6.63;3.00;;;25.80;69.10;;;;;;5057587;28;20210;-86
2021/05/07 11:50:04;;;;;;;3.30;3.00;;;26.30;65.50;;;;;;5069388;28;20177;-86
2021/05/07 11:52:35;;;;;;;3.40;3.10;;;26.30;65.40;;;;;;5065286;28;20239;-85
2021/05/07 11:55:00;;;;;;;5.45;3.10;;;25.90;62.30;;;;;;5054045;28;20183;-85
2021/05/07 11:57:29;;;;;;;3.72;3.45;;;26.10;65.60;;;;;;5047746;28;20215;-86
2021/05/07 11:59:55;;;;;;;4.47;3.28;;;25.10;66.10;;;;;;5072685;28;20167;-86
2021/05/07 12:02:26;;;;;;;3.67;3.38;;;23.40;69.20;;;;;;5047099;28;20194;-87
2021/05/07 12:04:53;;;;;;;3.85;3.55;;;23.30;69.70;;;;;;5040564;28;20173;-86
2021/05/07 12:07:28;;;;;;;3.88;3.50;;;21.50;69.60;;;;;;5060946;28;20168;-85
2021/05/07 12:09:57;;;;;;;5.78;4.60;;;20.30;73.40;;;;;;5071712;28;20171;-86
2021/05/07 12:12:24;;;;;;;5.13;4.72;;;20.40;75.50;;;;;;5056560;28;20160;-85
2021/05/07 12:15:10;;;;;;;4.30;4.00;;;20.10;75.10;;;;;;5054105;28;20185;-85
2021/05/07 12:17:43;;;;;;;4.50;4.20;;;21.10;74.00;;;;;;5045654;28;20606;-86
2021/05/07 12:20:12;;;;;;;4.57;4.28;;;22.00;74.40;;;;;;5055787;28;20180;-86
2021/05/07 12:22:38;;;;;;;5.50;4.15;;;22.50;69.40;;;;;;5054728;28;20256;-85
2021/05/07 12:25:17;;;;;;;4.88;3.75;;;21.70;72.60;;;;;;5088811;28;20168;-84
2021/05/07 12:27:47;;;;;;;5.05;4.00;;;20.20;72.20;;;;;;5054330;28;20296;-85
2021/05/07 12:30:26;;;;;;;4.20;3.80;;;19.20;76.30;;;;;;5054615;28;20176;-85
2021/05/07 12:33:00;;;;;;;4.10;3.80;;;18.70;77.50;;;;;;5056291;28;20628;-85
2021/05/07 12:35:55;;;;;;;6.03;4.22;;;18.60;75.90;;;;;;5056169;28;20183;-86
2021/05/07 12:38:23;;;;;;;4.90;4.47;;;18.50;79.40;;;;;;5089983;28;20692;-85
2021/05/07 12:40:49;;;;;;;5.22;4.82;;;18.20;78.50;;;;;;5057282;28;20179;-84
2021/05/07 12:43:15;;;;;;;3.67;2.97;;;18.20;79.30;;;;;;5057588;28;20180;-85
2021/05/07 12:45:46;;;;;;;3.70;3.40;;;18.30;78.20;;;;;;5043030;28;20270;-84